createdAt,value
2019-03-10T00:01:36.991Z,57.35
2019-03-10T00:04:32.969Z,51.20
2019-03-10T00:07:28.791Z,56.33
2019-03-10T00:10:24.034Z,56.33
2019-03-10T00:13:19.107Z,53.00
2019-03-10T00:16:14.291Z,52.85
2019-03-10T00:19:09.357Z,52.27
2019-03-10T00:22:04.478Z,51.37
2019-03-10T00:24:59.988Z,50.52
2019-03-10T00:27:55.288Z,48.80
2019-03-10T00:30:50.042Z,47.70
2019-03-10T00:33:45.044Z,47.85
2019-03-10T00:36:40.506Z,48.40
2019-03-10T00:40:15.351Z,50.35
2019-03-10T00:43:44.689Z,50.20
2019-03-10T00:47:14.388Z,53.70
2019-03-10T00:50:51.298Z,50.65
2019-03-10T00:53:46.480Z,46.85
2019-03-10T00:56:41.237Z,46.73
2019-03-10T00:59:36.327Z,48.55
2019-03-10T01:02:31.356Z,50.28
2019-03-10T01:05:26.715Z,52.78
2019-03-10T01:08:21.766Z,56.15
2019-03-10T01:11:16.844Z,53.28
2019-03-10T01:14:11.772Z,52.90
2019-03-10T01:17:07.454Z,53.20
2019-03-10T01:20:03.748Z,52.55
2019-03-10T01:22:59.180Z,53.42
2019-03-10T01:25:54.385Z,53.78
2019-03-10T01:28:49.819Z,52.80
2019-03-10T01:32:08.963Z,53.38
2019-03-10T01:35:16.309Z,53.05
2019-03-10T01:38:11.392Z,54.88
2019-03-10T01:41:08.202Z,58.68
2019-03-10T01:44:03.537Z,76.67
2019-03-10T01:46:58.681Z,92.53
2019-03-10T01:49:53.820Z,64.15
2019-03-10T01:52:49.274Z,71.07
2019-03-10T01:55:44.681Z,52.27
2019-03-10T01:58:40.056Z,52.95
2019-03-10T02:01:35.135Z,50.78
2019-03-10T02:04:30.015Z,51.58
2019-03-10T02:07:24.910Z,55.48
2019-03-10T02:10:20.134Z,51.33
2019-03-10T02:13:15.236Z,49.90
2019-03-10T02:16:10.475Z,40.80
2019-03-10T02:19:05.315Z,41.50
2019-03-10T02:22:00.512Z,41.10
2019-03-10T02:24:55.151Z,43.28
2019-03-10T02:27:49.773Z,42.13
2019-03-10T02:30:45.287Z,42.90
2019-03-10T02:33:40.139Z,49.98
2019-03-10T02:36:34.895Z,40.98
2019-03-10T02:39:29.758Z,41.80
2019-03-10T02:42:24.747Z,39.90
2019-03-10T02:45:19.807Z,37.80
2019-03-10T02:48:14.528Z,35.38
2019-03-10T02:51:09.909Z,36.28
2019-03-10T02:54:04.652Z,38.30
2019-03-10T02:56:59.652Z,40.03
2019-03-10T02:59:54.759Z,38.25
2019-03-10T03:02:50.058Z,35.45
2019-03-10T03:05:44.942Z,36.73
2019-03-10T03:08:39.887Z,34.88
2019-03-10T03:11:34.869Z,32.78
2019-03-10T03:14:29.922Z,32.93
2019-03-10T03:17:24.995Z,38.63
2019-03-10T03:20:20.258Z,40.45
2019-03-10T03:23:14.980Z,40.95
2019-03-10T03:26:09.926Z,40.08
2019-03-10T03:29:04.872Z,41.98
2019-03-10T03:32:00.060Z,36.25
2019-03-10T03:34:55.301Z,35.40
2019-03-10T03:37:50.178Z,33.10
2019-03-10T03:40:46.626Z,33.13
2019-03-10T03:43:42.557Z,30.30
2019-03-10T03:46:38.220Z,32.70
2019-03-10T03:49:33.857Z,26.00
2019-03-10T03:52:29.416Z,22.42
2019-03-10T03:55:24.985Z,22.37
2019-03-10T03:58:20.576Z,21.30
2019-03-10T04:01:41.033Z,20.32
2019-03-10T04:04:37.065Z,21.60
2019-03-10T04:07:32.686Z,21.82
2019-03-10T04:10:28.070Z,23.40
2019-03-10T04:13:23.644Z,24.23
2019-03-10T04:16:19.317Z,22.22
2019-03-10T04:19:14.713Z,22.73
2019-03-10T04:22:10.345Z,24.85
2019-03-10T04:25:07.569Z,24.47
2019-03-10T04:28:02.608Z,26.35
2019-03-10T04:30:57.976Z,25.02
2019-03-10T04:33:53.406Z,26.73
2019-03-10T04:36:49.067Z,27.73
2019-03-10T04:39:44.007Z,30.32
2019-03-10T04:42:39.773Z,29.55
2019-03-10T04:45:35.954Z,29.52
2019-03-10T04:48:31.633Z,29.85
2019-03-10T04:51:27.224Z,32.15
2019-03-10T04:54:39.081Z,31.42
2019-03-10T04:57:34.846Z,31.90
2019-03-10T05:00:30.860Z,29.00
2019-03-10T05:03:25.875Z,26.27
2019-03-10T05:06:20.878Z,27.98
2019-03-10T05:09:16.408Z,27.65
2019-03-10T05:12:11.540Z,26.68
2019-03-10T05:15:06.762Z,29.10
2019-03-10T05:18:01.876Z,25.30
2019-03-10T05:20:56.998Z,25.05
2019-03-10T05:23:53.557Z,23.40
2019-03-10T05:26:48.868Z,24.00
2019-03-10T05:29:43.764Z,25.40
2019-03-10T05:32:38.886Z,23.85
2019-03-10T05:35:33.767Z,22.87
2019-03-10T05:38:28.623Z,23.90
2019-03-10T05:41:23.643Z,23.50
2019-03-10T05:44:18.726Z,21.48
2019-03-10T05:47:13.766Z,23.90
2019-03-10T05:50:08.515Z,23.20
2019-03-10T05:53:03.390Z,21.30
2019-03-10T05:55:58.353Z,21.35
2019-03-10T05:58:54.130Z,21.27
2019-03-10T06:01:49.042Z,22.15
2019-03-10T06:04:44.095Z,22.20
2019-03-10T06:07:39.188Z,21.90
2019-03-10T06:10:34.102Z,21.35
2019-03-10T06:13:29.114Z,20.08
2019-03-10T06:16:24.397Z,21.35
2019-03-10T06:19:19.474Z,24.40
2019-03-10T06:22:14.813Z,19.10
2019-03-10T06:25:10.603Z,20.80
2019-03-10T06:28:06.090Z,22.13
2019-03-10T06:31:01.715Z,20.72
2019-03-10T06:33:57.033Z,19.65
2019-03-10T06:36:52.575Z,19.40
2019-03-10T06:39:47.980Z,17.95
2019-03-10T06:42:43.408Z,17.23
2019-03-10T06:45:39.000Z,18.02
2019-03-10T06:48:35.732Z,18.37
2019-03-10T06:51:30.914Z,18.42
2019-03-10T06:54:25.608Z,19.55
2019-03-10T06:57:20.668Z,18.60
2019-03-10T07:00:17.739Z,18.48
2019-03-10T07:03:12.806Z,15.78
2019-03-10T07:06:08.485Z,17.55
2019-03-10T07:09:05.830Z,17.07
2019-03-10T07:12:01.182Z,16.10
2019-03-10T07:14:56.769Z,14.15
2019-03-10T07:17:51.767Z,14.73
2019-03-10T07:20:46.757Z,16.07
2019-03-10T07:23:42.712Z,13.10
2019-03-10T07:26:37.806Z,13.55
2019-03-10T07:29:36.283Z,15.43
2019-03-10T07:32:47.238Z,13.95
2019-03-10T07:36:09.142Z,13.70
2019-03-10T07:39:22.384Z,12.93
2019-03-10T07:42:37.914Z,13.18
2019-03-10T07:45:43.853Z,12.70
2019-03-10T07:48:59.048Z,12.15
2019-03-10T07:52:19.890Z,12.30
2019-03-10T07:55:24.245Z,11.93
2019-03-10T07:58:39.085Z,13.40
2019-03-10T08:01:46.858Z,12.00
2019-03-10T08:05:18.320Z,13.03
2019-03-10T08:08:37.558Z,12.55
2019-03-10T08:11:53.213Z,12.35
2019-03-10T08:15:21.237Z,12.65
2019-03-10T08:18:34.544Z,13.15
2019-03-10T08:21:46.290Z,11.88
2019-03-10T08:25:05.543Z,12.90
2019-03-10T08:28:24.101Z,14.65
2019-03-10T08:31:35.046Z,13.70
2019-03-10T08:34:46.194Z,12.33
2019-03-10T08:38:08.606Z,13.62
2019-03-10T08:41:22.737Z,13.75
2019-03-10T08:44:22.686Z,14.20
2019-03-10T08:47:36.174Z,14.40
2019-03-10T08:50:50.074Z,13.35
2019-03-10T08:54:03.124Z,13.53
2019-03-10T08:57:16.182Z,13.88
2019-03-10T09:00:27.783Z,12.15
2019-03-10T09:03:52.970Z,13.78
2019-03-10T09:07:06.615Z,11.63
2019-03-10T09:10:22.850Z,13.28
2019-03-10T09:13:41.795Z,12.78
2019-03-10T09:16:45.378Z,12.23
2019-03-10T09:20:04.646Z,11.50
2019-03-10T09:23:21.542Z,9.58
2019-03-10T09:26:40.109Z,12.03
2019-03-10T09:30:01.718Z,12.50
2019-03-10T09:33:20.980Z,12.20
2019-03-10T09:36:22.679Z,12.13
2019-03-10T09:39:25.572Z,12.73
2019-03-10T09:42:29.608Z,12.35
2019-03-10T09:45:36.754Z,11.25
2019-03-10T09:48:52.587Z,13.13
2019-03-10T09:52:03.656Z,11.15
2019-03-10T09:55:19.189Z,10.63
2019-03-10T09:58:28.868Z,11.35
2019-03-10T10:01:47.628Z,10.50
2019-03-10T10:05:03.803Z,10.68
2019-03-10T10:08:31.573Z,10.32
2019-03-10T10:11:50.145Z,12.18
2019-03-10T10:15:02.690Z,12.73
2019-03-10T10:18:06.279Z,10.75
2019-03-10T10:21:28.010Z,10.85
2019-03-10T10:24:31.526Z,12.65
2019-03-10T10:27:35.196Z,12.53
2019-03-10T10:30:47.944Z,11.63
2019-03-10T10:33:49.717Z,10.60
2019-03-10T10:37:01.379Z,11.28
2019-03-10T10:40:09.520Z,12.07
2019-03-10T10:43:38.317Z,10.23
2019-03-10T10:47:09.356Z,10.28
2019-03-10T10:50:22.759Z,9.40
2019-03-10T10:53:39.934Z,9.48
2019-03-10T10:57:02.234Z,9.45
2019-03-10T11:00:19.462Z,9.78
2019-03-10T11:03:44.725Z,9.45
2019-03-10T11:07:09.224Z,9.53
2019-03-10T11:10:31.588Z,10.70
2019-03-10T11:13:56.731Z,10.88
2019-03-10T11:16:58.324Z,9.83
2019-03-10T11:20:19.993Z,11.55
2019-03-10T11:23:23.912Z,10.78
2019-03-10T11:26:27.354Z,10.58
2019-03-10T11:29:28.705Z,10.30
2019-03-10T11:32:30.382Z,11.12
2019-03-10T11:35:46.420Z,11.80
2019-03-10T11:38:57.821Z,10.82
2019-03-10T11:42:09.302Z,12.10
2019-03-10T11:45:20.959Z,10.78
2019-03-10T11:48:34.744Z,13.10
2019-03-10T11:51:43.243Z,12.07
2019-03-10T11:54:54.538Z,12.33
2019-03-10T11:58:07.829Z,11.30
2019-03-10T12:01:21.109Z,12.30
2019-03-10T12:04:39.515Z,12.73
2019-03-10T12:07:56.092Z,12.68
2019-03-10T12:10:51.741Z,11.95
2019-03-10T12:13:47.188Z,12.13
2019-03-10T12:16:42.731Z,15.15
2019-03-10T12:19:38.009Z,16.25
2019-03-10T12:22:33.073Z,14.58
2019-03-10T12:25:28.311Z,18.07
2019-03-10T12:28:23.937Z,15.13
2019-03-10T12:31:19.418Z,16.23
2019-03-10T12:34:14.515Z,19.35
2019-03-10T12:37:09.975Z,16.07
2019-03-10T12:40:05.171Z,16.55
2019-03-10T12:43:00.446Z,15.63
2019-03-10T12:45:55.966Z,15.75
2019-03-10T12:48:51.559Z,17.05
2019-03-10T12:51:46.729Z,15.95
2019-03-10T12:54:42.307Z,17.05
2019-03-10T12:57:38.871Z,16.12
2019-03-10T13:00:34.420Z,18.37
2019-03-10T13:03:29.759Z,19.55
2019-03-10T13:06:24.964Z,19.65
2019-03-10T13:09:20.261Z,18.40
2019-03-10T13:12:15.731Z,17.60
2019-03-10T13:15:12.210Z,18.77
2019-03-10T13:18:08.227Z,20.60
2019-03-10T13:21:03.320Z,18.70
2019-03-10T13:23:58.433Z,19.73
2019-03-10T13:26:53.722Z,20.77
2019-03-10T13:29:49.157Z,19.57
2019-03-10T13:32:44.825Z,16.95
2019-03-10T13:35:40.443Z,18.42
2019-03-10T13:38:35.459Z,19.05
2019-03-10T13:41:30.903Z,16.85
2019-03-10T13:44:26.185Z,16.23
2019-03-10T13:47:21.412Z,16.30
2019-03-10T13:50:18.756Z,16.17
2019-03-10T13:53:14.085Z,16.65
2019-03-10T13:56:09.877Z,16.55
2019-03-10T13:59:04.822Z,19.77
2019-03-10T14:02:00.435Z,21.23
2019-03-10T14:04:55.914Z,19.80
2019-03-10T14:07:51.520Z,18.70
2019-03-10T14:10:47.011Z,19.67
2019-03-10T14:13:42.435Z,19.80
2019-03-10T14:16:38.490Z,19.90
2019-03-10T14:19:33.878Z,22.55
2019-03-10T14:22:29.649Z,20.70
2019-03-10T14:25:24.604Z,20.45
2019-03-10T14:28:21.304Z,21.33
2019-03-10T14:31:15.578Z,21.95
2019-03-10T14:34:11.161Z,21.55
2019-03-10T14:37:06.585Z,21.42
2019-03-10T14:40:01.994Z,24.40
2019-03-10T14:42:57.749Z,24.18
2019-03-10T14:45:53.462Z,26.60
2019-03-10T14:48:48.930Z,27.45
2019-03-10T14:51:45.317Z,27.17
2019-03-10T14:54:41.062Z,30.68
2019-03-10T14:57:36.664Z,30.77
2019-03-10T15:00:31.996Z,28.07
2019-03-10T15:03:27.985Z,28.90
2019-03-10T15:06:23.351Z,33.13
2019-03-10T15:09:19.937Z,35.48
2019-03-10T15:12:16.164Z,36.42
2019-03-10T15:15:21.602Z,38.78
2019-03-10T15:18:08.600Z,38.38
2019-03-10T15:21:04.877Z,40.30
2019-03-10T15:24:01.096Z,38.88
2019-03-10T15:26:56.829Z,40.40
2019-03-10T15:29:52.447Z,38.88
2019-03-10T15:32:48.687Z,39.50
2019-03-10T15:35:44.460Z,39.13
2019-03-10T15:38:40.412Z,36.05
2019-03-10T15:41:35.874Z,32.78
2019-03-10T15:44:31.232Z,30.97
2019-03-10T15:47:26.431Z,29.48
2019-03-10T15:50:24.185Z,26.52
2019-03-10T15:53:19.909Z,24.57
2019-03-10T15:56:15.223Z,24.43
2019-03-10T15:59:12.563Z,22.22
2019-03-10T16:02:07.505Z,23.65
2019-03-10T16:05:02.920Z,23.25
2019-03-10T16:07:58.374Z,22.15
2019-03-10T16:10:53.652Z,22.40
2019-03-10T16:13:48.868Z,23.90
2019-03-10T16:16:44.126Z,25.57
2019-03-10T16:19:39.581Z,32.73
2019-03-10T16:22:34.922Z,36.75
2019-03-10T16:25:30.341Z,36.70
2019-03-10T16:28:25.529Z,40.95
2019-03-10T16:31:20.899Z,45.65
2019-03-10T16:34:16.379Z,54.55
2019-03-10T16:37:12.083Z,55.23
2019-03-10T16:40:07.707Z,63.02
2019-03-10T16:43:03.449Z,57.15
2019-03-10T16:45:58.644Z,45.80
2019-03-10T16:48:53.867Z,40.58
2019-03-10T16:51:49.252Z,41.08
2019-03-10T16:54:44.684Z,41.92
2019-03-10T16:57:40.353Z,41.88
2019-03-10T17:00:35.606Z,42.50
2019-03-10T17:03:31.171Z,44.20
2019-03-10T17:06:26.162Z,42.67
2019-03-10T17:09:22.842Z,42.60
2019-03-10T17:12:19.179Z,44.95
2019-03-10T17:15:16.200Z,42.85
2019-03-10T17:18:11.482Z,43.48
2019-03-10T17:21:07.857Z,44.25
2019-03-10T17:24:03.091Z,44.15
2019-03-10T17:26:58.522Z,44.80
2019-03-10T17:29:53.451Z,48.00
2019-03-10T17:32:49.036Z,46.30
2019-03-10T17:35:45.077Z,47.93
2019-03-10T17:38:40.518Z,52.03
2019-03-10T17:41:35.732Z,51.25
2019-03-10T17:44:40.641Z,51.83
2019-03-10T17:47:27.032Z,49.98
2019-03-10T17:50:21.970Z,50.20
2019-03-10T17:53:17.225Z,49.73
2019-03-10T17:56:12.806Z,53.28
2019-03-10T17:59:08.074Z,50.78
2019-03-10T18:02:08.949Z,51.50
2019-03-10T18:04:59.559Z,49.38
2019-03-10T18:07:54.991Z,51.68
2019-03-10T18:10:50.410Z,52.60
2019-03-10T18:13:46.276Z,53.13
2019-03-10T18:16:41.900Z,53.83
2019-03-10T18:19:37.379Z,54.20
2019-03-10T18:22:33.195Z,55.30
2019-03-10T18:25:28.382Z,57.13
2019-03-10T18:28:23.752Z,63.28
2019-03-10T18:31:19.388Z,62.93
2019-03-10T18:34:14.524Z,60.35
2019-03-10T18:37:10.309Z,61.80
2019-03-10T18:40:05.668Z,59.13
2019-03-10T18:43:01.074Z,49.58
2019-03-10T18:45:56.413Z,50.48
2019-03-10T18:48:51.872Z,44.67
2019-03-10T18:51:47.476Z,40.50
2019-03-10T18:54:43.239Z,37.83
2019-03-10T18:57:38.558Z,36.38
2019-03-10T19:00:33.926Z,35.40
2019-03-10T19:03:28.982Z,35.58
2019-03-10T19:06:24.166Z,29.90
2019-03-10T19:09:19.282Z,30.75
2019-03-10T19:12:14.492Z,29.98
2019-03-10T19:15:09.906Z,29.55
2019-03-10T19:18:04.889Z,29.72
2019-03-10T19:21:00.155Z,28.42
2019-03-10T19:23:55.299Z,29.80
2019-03-10T19:26:50.620Z,28.95
2019-03-10T19:29:45.694Z,30.60
2019-03-10T19:32:40.681Z,30.82
2019-03-10T19:35:35.507Z,32.28
2019-03-10T19:38:30.972Z,33.53
2019-03-10T19:41:26.142Z,35.98
2019-03-10T19:44:21.446Z,37.95
2019-03-10T19:47:16.433Z,39.35
2019-03-10T19:50:12.587Z,38.88
2019-03-10T19:53:08.273Z,38.00
2019-03-10T19:56:04.111Z,37.10
2019-03-10T19:58:58.734Z,37.00
2019-03-10T20:01:54.055Z,36.15
2019-03-10T20:04:49.324Z,35.10
2019-03-10T20:07:44.344Z,36.73
2019-03-10T20:10:39.473Z,36.50
2019-03-10T20:13:34.921Z,35.70
2019-03-10T20:16:30.367Z,34.35
2019-03-10T20:19:25.884Z,34.95
2019-03-10T20:22:21.114Z,34.00
2019-03-10T20:25:16.849Z,33.38
2019-03-10T20:28:11.960Z,33.45
2019-03-10T20:31:06.927Z,33.83
2019-03-10T20:34:02.142Z,32.70
2019-03-10T20:36:57.519Z,34.67
2019-03-10T20:39:52.987Z,29.35
2019-03-10T20:42:48.855Z,29.40
2019-03-10T20:45:44.002Z,27.10
2019-03-10T20:48:39.379Z,28.92
2019-03-10T20:51:34.489Z,30.17
2019-03-10T20:54:30.004Z,28.67
2019-03-10T20:57:26.283Z,30.40
2019-03-10T21:00:22.766Z,34.48
2019-03-10T21:03:18.617Z,28.62
2019-03-10T21:06:14.310Z,28.75
2019-03-10T21:09:10.531Z,26.20
2019-03-10T21:12:06.042Z,28.77
2019-03-10T21:15:01.346Z,26.33
2019-03-10T21:17:57.877Z,25.20
2019-03-10T21:20:52.879Z,24.65
2019-03-10T21:23:47.974Z,24.18
2019-03-10T21:26:43.355Z,22.58
2019-03-10T21:29:38.718Z,23.18
2019-03-10T21:32:33.390Z,22.45
2019-03-10T21:35:28.635Z,21.20
2019-03-10T21:38:23.921Z,21.62
2019-03-10T21:41:18.832Z,20.62
2019-03-10T21:44:13.633Z,20.60
2019-03-10T21:47:09.073Z,19.77
2019-03-10T21:50:05.041Z,19.27
2019-03-10T21:53:00.066Z,19.27
2019-03-10T21:55:54.987Z,18.92
2019-03-10T21:58:49.880Z,19.57
2019-03-10T22:01:45.221Z,19.37
2019-03-10T22:04:40.647Z,20.62
2019-03-10T22:07:35.557Z,20.30
2019-03-10T22:10:30.367Z,19.75
2019-03-10T22:13:25.454Z,21.55
2019-03-10T22:16:20.442Z,21.37
2019-03-10T22:19:22.575Z,22.02
2019-03-10T22:22:10.752Z,24.23
2019-03-10T22:25:12.758Z,27.42
2019-03-10T22:28:01.297Z,25.90
2019-03-10T22:30:56.470Z,29.55
2019-03-10T22:33:51.366Z,28.42
2019-03-10T22:36:46.333Z,32.03
2019-03-10T22:39:41.529Z,31.35
2019-03-10T22:42:36.445Z,32.38
2019-03-10T22:45:31.305Z,32.95
2019-03-10T22:48:26.101Z,34.45
2019-03-10T22:51:21.002Z,35.73
2019-03-10T22:54:15.583Z,35.35
2019-03-10T22:57:10.439Z,35.28
2019-03-10T23:00:08.112Z,35.10
2019-03-10T23:03:03.300Z,34.70
2019-03-10T23:05:58.124Z,34.13
2019-03-10T23:08:53.160Z,35.03
2019-03-10T23:11:48.681Z,36.63
2019-03-10T23:14:44.343Z,37.45
2019-03-10T23:17:39.872Z,37.78
2019-03-10T23:20:34.730Z,36.48
2019-03-10T23:23:29.572Z,36.65
2019-03-10T23:26:25.912Z,37.83
2019-03-10T23:29:20.701Z,37.28
2019-03-10T23:32:15.837Z,36.63
2019-03-10T23:35:11.091Z,36.42
2019-03-10T23:38:06.369Z,36.88
2019-03-10T23:41:01.349Z,36.45
2019-03-10T23:43:56.363Z,36.30
2019-03-10T23:46:51.595Z,36.25
2019-03-10T23:49:46.562Z,35.70
2019-03-10T23:52:42.302Z,36.40
2019-03-10T23:55:37.037Z,34.43
2019-03-10T23:58:32.349Z,36.13
